Time;durP1;ratioP1;P1;durP2;ratioP2;P2;SDS_P1;SDS_P2;PMS_P1;PMS_P2;Temp;Humidity;BMP_temperature;BMP_pressure;BME280_temperature;BME280_humidity;BME280_pressure;Samples;Min_cycle;Max_cycle;Signal;HPM_P1;HPM_P2
2023/03/10 00:01:40;;;;;;;4.22;3.10;;;;;;;;;;4969209;28;20109;-77
2023/03/10 00:04:07;;;;;;;4.60;3.22;;;;;;;;;;4968214;28;20059;-79
2023/03/10 00:06:36;;;;;;;4.43;3.28;;;;;;;;;;4969322;28;20070;-77
2023/03/10 00:09:03;;;;;;;45.63;42.13;;;;;;;;;;4969298;28;20064;-79
2023/03/10 00:11:31;;;;;;;5.07;3.25;;;;;;;;;;4951742;28;20051;-78
2023/03/10 00:13:58;;;;;;;3.83;3.42;;;;;;;;;;4969121;28;20105;-78
2023/03/10 00:16:27;;;;;;;5.88;3.42;;;;;;;;;;4968789;28;20534;-80
2023/03/10 00:18:55;;;;;;;4.93;3.33;;;;;;;;;;4951661;28;20057;-77
2023/03/10 00:21:24;;;;;;;4.40;2.95;;;;;;;;;;4968962;28;20081;-79
2023/03/10 00:23:51;;;;;;;6.80;6.20;;;;;;;;;;4951535;28;20465;-77
2023/03/10 00:26:20;;;;;;;5.22;3.10;;;;;;;;;;4968639;28;20065;-77
2023/03/10 00:28:47;;;;;;;3.55;3.25;;;;;;;;;;4968742;28;20425;-77
2023/03/10 00:31:16;;;;;;;6.35;3.72;;;;;;;;;;4968415;28;20059;-77
2023/03/10 00:33:44;;;;;;;5.10;3.28;;;;;;;;;;4951716;28;20109;-77
2023/03/10 00:36:13;;;;;;;3.88;3.33;;;;;;;;;;4951297;28;20047;-78
2023/03/10 00:38:41;;;;;;;4.20;3.00;;;;;;;;;;4951234;28;20141;-79
2023/03/10 00:41:13;;;;;;;4.93;3.55;;;;;;;;;;4968668;28;20059;-80
2023/03/10 00:43:41;;;;;;;8.55;4.72;;;;;;;;;;4968353;28;20510;-78
2023/03/10 00:46:08;;;;;;;5.35;3.28;;;;;;;;;;4968051;28;20054;-77
2023/03/10 00:48:36;;;;;;;4.68;3.40;;;;;;;;;;4968635;28;20134;-79
2023/03/10 00:51:04;;;;;;;6.95;3.97;;;;;;;;;;4951557;28;20073;-79
2023/03/10 00:53:33;;;;;;;6.10;3.90;;;;;;;;;;4950920;28;20106;-79
2023/03/10 00:56:00;;;;;;;4.30;3.67;;;;;;;;;;4967955;28;20504;-79
2023/03/10 00:58:28;;;;;;;3.35;3.05;;;;;;;;;;4967327;28;20059;-77
2023/03/10 01:00:55;;;;;;;5.32;3.35;;;;;;;;;;4968050;28;20057;-77
2023/03/10 01:03:23;;;;;;;4.43;3.30;;;;;;;;;;4950158;28;20089;-78
2023/03/10 01:05:51;;;;;;;6.40;3.83;;;;;;;;;;4968090;28;20521;-79
2023/03/10 01:08:19;;;;;;;4.25;2.92;;;;;;;;;;4967923;28;20055;-79
2023/03/10 01:10:47;;;;;;;3.30;3.00;;;;;;;;;;4950446;28;20125;-80
2023/03/10 01:13:16;;;;;;;6.22;3.30;;;;;;;;;;4950457;28;20054;-78
2023/03/10 01:15:46;;;;;;;3.15;2.90;;;;;;;;;;4974505;28;20496;-78
2023/03/10 01:18:14;;;;;;;3.45;2.95;;;;;;;;;;5006725;28;20053;-77
2023/03/10 01:20:42;;;;;;;5.22;3.28;;;;;;;;;;5006622;28;20470;-79
2023/03/10 01:23:17;;;;;;;3.65;2.90;;;;;;;;;;5006956;28;20144;-78
2023/03/10 01:25:45;;;;;;;3.53;2.80;;;;;;;;;;4989475;28;20427;-77
2023/03/10 01:28:12;;;;;;;4.07;3.08;;;;;;;;;;4989042;28;20134;-77
2023/03/10 01:30:40;;;;;;;5.60;3.25;;;;;;;;;;5006941;28;20081;-78
2023/03/10 01:33:08;;;;;;;3.85;3.53;;;;;;;;;;4988447;28;20058;-79
2023/03/10 01:35:36;;;;;;;3.40;2.95;;;;;;;;;;4988939;28;20823;-76
2023/03/10 01:38:04;;;;;;;3.08;2.78;;;;;;;;;;4988893;28;20050;-77
2023/03/10 01:40:33;;;;;;;3.00;2.40;;;;;;;;;;5006666;28;20045;-78
2023/03/10 01:43:19;;;;;;;3.00;2.75;;;;;;;;;;4989115;28;20057;-78
2023/03/10 01:45:47;;;;;;;4.32;3.40;;;;;;;;;;5006146;28;20647;-77
2023/03/10 01:48:16;;;;;;;4.05;2.60;;;;;;;;;;5006679;28;20053;-79
2023/03/10 01:50:45;;;;;;;5.45;3.33;;;;;;;;;;4988896;28;20153;-77
2023/03/10 01:53:14;;;;;;;3.67;3.33;;;;;;;;;;4988518;28;20403;-79
2023/03/10 01:55:45;;;;;;;3.80;2.35;;;;;;;;;;4988507;28;20583;-77
2023/03/10 01:58:15;;;;;;;4.10;2.45;;;;;;;;;;4988488;28;20054;-79
2023/03/10 02:00:43;;;;;;;6.20;5.70;;;;;;;;;;5006411;28;20367;-78
2023/03/10 02:03:16;;;;;;;2.65;2.45;;;;;;;;;;4988017;28;20049;-77
2023/03/10 02:05:53;;;;;;;3.83;2.63;;;;;;;;;;5005979;28;20081;-80
2023/03/10 02:08:22;;;;;;;5.88;3.13;;;;;;;;;;5006000;28;20508;-78
2023/03/10 02:10:51;;;;;;;3.67;3.28;;;;;;;;;;4988161;28;20124;-78
2023/03/10 02:13:18;;;;;;;5.50;3.78;;;;;;;;;;5006515;28;20103;-78
2023/03/10 02:15:46;;;;;;;6.13;3.70;;;;;;;;;;5006094;28;20066;-79
2023/03/10 02:18:17;;;;;;;9.52;5.32;;;;;;;;;;5006144;28;20065;-79
2023/03/10 02:21:03;;;;;;;10.88;6.05;;;;;;;;;;5005649;28;20057;-77
2023/03/10 02:23:34;;;;;;;10.82;7.20;;;;;;;;;;4988413;28;20046;-79
2023/03/10 02:26:20;;;;;;;13.73;7.28;;;;;;;;;;4988363;28;20100;-77
2023/03/10 02:28:48;;;;;;;17.30;8.40;;;;;;;;;;4988371;28;20046;-79
2023/03/10 02:31:16;;;;;;;17.05;7.80;;;;;;;;;;5005697;28;20060;-77
2023/03/10 02:33:44;;;;;;;19.15;17.35;;;;;;;;;;5006490;28;20128;-77
2023/03/10 02:36:22;;;;;;;7.90;4.78;;;;;;;;;;4988453;28;20050;-78
2023/03/10 02:38:50;;;;;;;10.93;5.22;;;;;;;;;;4988385;28;20056;-77
2023/03/10 02:41:37;;;;;;;7.20;4.40;;;;;;;;;;5005532;28;20431;-77
2023/03/10 02:44:07;;;;;;;14.20;13.05;;;;;;;;;;4988520;28;20069;-78
2023/03/10 02:46:34;;;;;;;7.38;3.80;;;;;;;;;;4987960;28;20108;-77
2023/03/10 02:49:02;;;;;;;4.25;3.83;;;;;;;;;;5005816;28;20050;-77
2023/03/10 02:51:44;;;;;;;6.03;3.67;;;;;;;;;;4988260;28;20052;-77
2023/03/10 02:54:14;;;;;;;3.47;2.88;;;;;;;;;;4988402;28;20133;-77
2023/03/10 02:56:42;;;;;;;5.03;3.65;;;;;;;;;;4987972;28;20088;-79
2023/03/10 02:59:11;;;;;;;5.90;5.30;;;;;;;;;;4988316;28;20061;-79
2023/03/10 03:01:43;;;;;;;3.45;3.05;;;;;;;;;;5006002;28;20052;-79
2023/03/10 03:04:11;;;;;;;4.03;3.20;;;;;;;;;;4987613;28;20220;-78
2023/03/10 03:06:39;;;;;;;7.40;3.35;;;;;;;;;;4987881;28;20049;-78
2023/03/10 03:09:07;;;;;;;6.93;4.05;;;;;;;;;;4987894;28;20073;-77
2023/03/10 03:11:35;;;;;;;4.30;3.17;;;;;;;;;;4987681;28;20046;-76
2023/03/10 03:14:04;;;;;;;3.95;3.47;;;;;;;;;;4987858;28;20046;-78
2023/03/10 03:16:31;;;;;;;6.55;3.38;;;;;;;;;;4987822;28;20099;-79
2023/03/10 03:19:03;;;;;;;4.18;3.72;;;;;;;;;;5005672;28;20056;-79
2023/03/10 03:21:31;;;;;;;6.13;3.25;;;;;;;;;;5006752;28;20058;-77
2023/03/10 03:23:58;;;;;;;3.88;3.38;;;;;;;;;;4991579;28;20058;-79
2023/03/10 03:26:26;;;;;;;6.82;6.35;;;;;;;;;;4991169;28;20088;-76
2023/03/10 03:29:01;;;;;;;5.75;3.67;;;;;;;;;;4990901;28;20041;-77
2023/03/10 03:31:33;;;;;;;3.50;3.00;;;;;;;;;;4991073;28;20057;-77
2023/03/10 03:34:07;;;;;;;5.43;3.20;;;;;;;;;;4991467;28;20042;-79
2023/03/10 03:36:34;;;;;;;5.72;3.35;;;;;;;;;;4991124;28;20045;-77
2023/03/10 03:39:05;;;;;;;3.83;3.50;;;;;;;;;;4991257;28;20496;-77
2023/03/10 03:41:34;;;;;;;3.60;2.80;;;;;;;;;;4990903;28;20054;-78
2023/03/10 03:44:02;;;;;;;3.92;3.00;;;;;;;;;;4991097;28;20140;-76
2023/03/10 03:46:31;;;;;;;4.65;2.80;;;;;;;;;;5008651;28;20328;-77
2023/03/10 03:48:59;;;;;;;2.97;2.63;;;;;;;;;;4990230;28;20072;-78
2023/03/10 03:51:27;;;;;;;3.58;2.53;;;;;;;;;;4990616;28;20046;-77
2023/03/10 03:53:55;;;;;;;6.22;3.40;;;;;;;;;;4990490;28;20050;-77
2023/03/10 03:56:23;;;;;;;3.80;3.13;;;;;;;;;;4990761;28;20084;-79
2023/03/10 03:58:50;;;;;;;5.93;3.90;;;;;;;;;;4990656;28;20050;-77
2023/03/10 04:01:18;;;;;;;16.92;15.57;;;;;;;;;;4990445;28;20058;-77
2023/03/10 04:03:49;;;;;;;3.78;3.22;;;;;;;;;;4991029;28;20082;-78
2023/03/10 04:06:17;;;;;;;5.65;4.05;;;;;;;;;;5007934;28;20054;-78
2023/03/10 04:08:48;;;;;;;5.28;3.97;;;;;;;;;;4990434;28;20519;-77
2023/03/10 04:11:16;;;;;;;6.65;4.47;;;;;;;;;;5008294;28;20045;-77
2023/03/10 04:13:45;;;;;;;8.25;4.55;;;;;;;;;;4990359;28;20056;-77
2023/03/10 04:16:13;;;;;;;14.55;10.48;;;;;;;;;;4990325;28;20057;-78
2023/03/10 04:18:43;;;;;;;12.57;6.05;;;;;;;;;;4990375;28;20133;-78
2023/03/10 04:21:13;;;;;;;13.50;4.57;;;;;;;;;;4990533;28;20050;-78
2023/03/10 04:23:42;;;;;;;5.18;3.95;;;;;;;;;;4990246;28;20500;-76
2023/03/10 04:26:13;;;;;;;6.38;3.72;;;;;;;;;;4990080;28;20145;-77
2023/03/10 04:28:40;;;;;;;11.57;5.47;;;;;;;;;;4990122;28;20049;-77
2023/03/10 04:31:12;;;;;;;11.30;5.22;;;;;;;;;;4990420;28;20080;-79
2023/03/10 04:33:40;;;;;;;8.48;4.80;;;;;;;;;;4988857;28;20096;-76
2023/03/10 04:36:07;;;;;;;5.65;5.05;;;;;;;;;;4990190;28;20050;-76
2023/03/10 04:38:35;;;;;;;9.00;4.28;;;;;;;;;;4990246;28;20133;-76
2023/03/10 04:41:04;;;;;;;7.07;4.47;;;;;;;;;;4990167;28;20081;-76
2023/03/10 04:43:37;;;;;;;8.50;5.10;;;;;;;;;;4989782;28;20089;-78
2023/03/10 04:46:08;;;;;;;10.23;4.22;;;;;;;;;;5077346;23;20049;-82
2023/03/10 04:48:41;;;;;;;10.32;4.13;;;;;;;;;;5009434;28;20143;-81
2023/03/10 04:51:18;;;;;;;6.65;4.65;;;;;;;;;;5009448;28;20049;-81
2023/03/10 04:53:56;;;;;;;10.63;5.70;;;;;;;;;;5009628;28;20054;-82
2023/03/10 04:56:41;;;;;;;8.88;5.03;;;;;;;;;;5009256;28;20136;-81
2023/03/10 04:59:20;;;;;;;10.10;5.93;;;;;;;;;;5009139;28;20049;-82
2023/03/10 05:01:51;;;;;;;12.25;5.93;;;;;;;;;;5009231;28;20073;-82
2023/03/10 05:04:26;;;;;;;13.90;6.45;;;;;;;;;;5009529;28;20141;-82
2023/03/10 05:06:54;;;;;;;9.35;5.95;;;;;;;;;;5009199;28;20050;-82
2023/03/10 05:09:27;;;;;;;11.48;6.15;;;;;;;;;;5008984;28;20046;-81
2023/03/10 05:11:54;;;;;;;13.30;7.25;;;;;;;;;;5008294;28;20049;-82
2023/03/10 05:14:22;;;;;;;14.25;8.25;;;;;;;;;;5008772;28;20046;-82
2023/03/10 05:16:49;;;;;;;15.05;6.65;;;;;;;;;;5010317;28;20158;-81
2023/03/10 05:19:17;;;;;;;16.58;7.40;;;;;;;;;;5010261;28;20054;-81
2023/03/10 05:21:44;;;;;;;13.05;8.90;;;;;;;;;;5008808;28;20046;-82
2023/03/10 05:24:11;;;;;;;13.07;6.63;;;;;;;;;;5009000;28;20060;-82
2023/03/10 05:26:39;;;;;;;10.13;5.75;;;;;;;;;;5009611;28;20076;-82
2023/03/10 05:29:06;;;;;;;14.73;7.28;;;;;;;;;;5010464;28;20054;-82
2023/03/10 05:31:44;;;;;;;13.30;6.18;;;;;;;;;;5008631;28;20045;-82
2023/03/10 05:34:18;;;;;;;8.63;6.45;;;;;;;;;;5009048;28;20046;-82
2023/03/10 05:36:47;;;;;;;13.40;4.68;;;;;;;;;;5008870;28;20049;-81
2023/03/10 05:39:15;;;;;;;13.70;5.32;;;;;;;;;;5009275;28;20049;-82
2023/03/10 05:41:47;;;;;;;13.85;8.73;;;;;;;;;;5008603;28;20054;-82
2023/03/10 05:44:15;;;;;;;21.15;14.50;;;;;;;;;;5008828;28;20072;-82
2023/03/10 05:46:43;;;;;;;11.95;7.85;;;;;;;;;;5008274;28;20058;-82
2023/03/10 05:49:10;;;;;;;69.60;55.35;;;;;;;;;;5009689;28;20056;-82
2023/03/10 05:51:38;;;;;;;8.82;4.75;;;;;;;;;;5008111;28;20642;-81
2023/03/10 05:54:06;;;;;;;6.75;4.70;;;;;;;;;;5009433;28;20046;-81
2023/03/10 05:56:33;;;;;;;7.18;4.68;;;;;;;;;;5008001;28;20455;-82
2023/03/10 05:59:02;;;;;;;11.00;5.63;;;;;;;;;;5008735;28;20060;-82
2023/03/10 06:01:33;;;;;;;33.70;24.50;;;;;;;;;;5008869;28;20532;-81
2023/03/10 06:04:01;;;;;;;9.38;5.40;;;;;;;;;;5009986;28;20049;-82
2023/03/10 06:06:29;;;;;;;11.23;6.22;;;;;;;;;;5009654;28;20045;-82
2023/03/10 06:08:56;;;;;;;9.60;5.90;;;;;;;;;;5009555;28;20157;-82
2023/03/10 06:11:23;;;;;;;9.02;5.93;;;;;;;;;;5009862;28;20060;-82
2023/03/10 06:13:51;;;;;;;12.50;5.78;;;;;;;;;;5009629;28;20057;-82
2023/03/10 06:16:18;;;;;;;9.77;6.10;;;;;;;;;;5010007;28;20407;-81
2023/03/10 06:18:45;;;;;;;10.55;9.55;;;;;;;;;;5010482;28;20053;-82
2023/03/10 06:21:14;;;;;;;7.72;5.05;;;;;;;;;;5066614;23;20046;-80
2023/03/10 06:23:41;;;;;;;5.50;4.35;;;;;;;;;;5009494;28;20045;-82
2023/03/10 06:26:11;;;;;;;32.00;29.52;;;;;;;;;;5009527;28;20046;-81
2023/03/10 06:28:40;;;;;;;8.50;4.78;;;;;;;;;;5009267;28;20452;-84
2023/03/10 06:31:09;;;;;;;11.57;7.25;;;;;;;;;;5010673;28;20497;-81
2023/03/10 06:33:37;;;;;;;6.15;4.32;;;;;;;;;;5009733;28;20065;-81
2023/03/10 06:36:04;;;;;;;3.92;3.53;;;;;;;;;;5010629;28;20061;-81
2023/03/10 06:38:31;;;;;;;3.95;3.55;;;;;;;;;;5010640;28;20086;-81
2023/03/10 06:40:59;;;;;;;6.78;3.75;;;;;;;;;;5010434;28;20100;-82
2023/03/10 06:43:26;;;;;;;5.32;3.90;;;;;;;;;;5010523;28;20081;-82
2023/03/10 06:45:53;;;;;;;8.82;4.13;;;;;;;;;;5009816;28;20046;-82
2023/03/10 06:48:21;;;;;;;4.82;3.90;;;;;;;;;;5010512;28;20069;-83
2023/03/10 06:56:47;;;;;;;6.50;4.45;;;;;;;;;;5034729;28;20096;-82
2023/03/10 06:59:15;;;;;;;7.22;3.67;;;;;;;;;;5038391;28;20453;-81
2023/03/10 07:01:43;;;;;;;15.68;14.32;;;;;;;;;;5032903;28;20057;-82
2023/03/10 07:04:11;;;;;;;7.13;5.22;;;;;;;;;;5004610;28;20050;-84
2023/03/10 07:06:39;;;;;;;7.25;5.85;;;;;;;;;;5019941;28;20470;-82
2023/03/10 07:09:06;;;;;;;9.35;4.82;;;;;;;;;;5020302;28;20060;-82
2023/03/10 07:11:33;;;;;;;6.28;5.00;;;;;;;;;;5021785;28;20045;-82
2023/03/10 07:14:01;;;;;;;7.65;4.57;;;;;;;;;;5024047;28;20090;-82
2023/03/10 07:16:28;;;;;;;4.25;3.83;;;;;;;;;;5024505;28;20054;-82
2023/03/10 07:18:55;;;;;;;6.13;4.10;;;;;;;;;;5026191;28;20053;-82
2023/03/10 07:21:23;;;;;;;4.38;3.92;;;;;;;;;;5017891;28;20114;-82
2023/03/10 07:23:50;;;;;;;7.80;4.22;;;;;;;;;;5007456;28;20053;-81
2023/03/10 07:26:18;;;;;;;8.77;4.63;;;;;;;;;;5007834;28;20050;-81
2023/03/10 07:28:46;;;;;;;7.00;4.35;;;;;;;;;;5012206;28;20042;-83
2023/03/10 07:31:14;;;;;;;5.22;4.15;;;;;;;;;;5004401;28;20288;-83
2023/03/10 07:33:42;;;;;;;6.70;4.38;;;;;;;;;;5009996;28;20040;-82
2023/03/10 07:36:18;;;;;;;4.43;3.60;;;;;;;;;;5007464;28;20534;-84
2023/03/10 07:39:11;;;;;;;5.53;3.83;;;;;;;;;;5011563;28;20065;-83
2023/03/10 07:41:38;;;;;;;6.60;4.03;;;;;;;;;;5003129;28;20470;-83
2023/03/10 07:44:06;;;;;;;7.28;3.92;;;;;;;;;;5005604;28;20046;-82
2023/03/10 07:46:35;;;;;;;6.32;3.90;;;;;;;;;;5008304;28;20137;-82
2023/03/10 07:49:09;;;;;;;6.68;5.00;;;;;;;;;;5008861;28;20163;-82
2023/03/10 07:51:37;;;;;;;4.45;3.72;;;;;;;;;;5005467;28;20249;-82
2023/03/10 07:54:18;;;;;;;6.00;4.53;;;;;;;;;;5013418;28;20046;-84
2023/03/10 07:56:46;;;;;;;4.50;4.10;;;;;;;;;;5016930;28;20049;-84
2023/03/10 07:59:48;;;;;;;6.85;4.57;;;;;;;;;;5009592;28;20058;-82
2023/03/10 08:02:15;;;;;;;5.75;5.03;;;;;;;;;;5013238;28;20056;-84
2023/03/10 08:05:13;;;;;;;4.35;3.95;;;;;;;;;;5014377;28;20056;-83
2023/03/10 08:07:42;;;;;;;7.22;5.13;;;;;;;;;;5032883;28;20133;-81
2023/03/10 08:10:10;;;;;;;8.10;5.35;;;;;;;;;;5017340;28;20120;-83
2023/03/10 08:12:37;;;;;;;8.80;5.40;;;;;;;;;;5022796;28;20050;-82
2023/03/10 08:15:05;;;;;;;8.77;5.72;;;;;;;;;;5022502;28;20974;-82
2023/03/10 08:17:33;;;;;;;6.88;5.85;;;;;;;;;;5018371;28;20508;-82
2023/03/10 08:20:00;;;;;;;6.57;5.55;;;;;;;;;;5016837;28;20057;-83
2023/03/10 08:22:28;;;;;;;6.00;5.25;;;;;;;;;;5015478;28;20057;-82
2023/03/10 08:24:55;;;;;;;6.97;5.72;;;;;;;;;;5015323;28;20080;-82
2023/03/10 08:27:26;;;;;;;9.05;6.28;;;;;;;;;;5004958;28;20072;-83
2023/03/10 08:29:55;;;;;;;11.20;8.23;;;;;;;;;;5019789;28;20045;-83
2023/03/10 08:32:23;;;;;;;11.32;10.18;;;;;;;;;;5021420;28;20412;-83
2023/03/10 08:35:00;;;;;;;8.63;5.78;;;;;;;;;;5025427;28;20049;-84
2023/03/10 08:37:45;;;;;;;9.70;6.70;;;;;;;;;;5031215;28;20580;-84
2023/03/10 08:40:27;;;;;;;6.18;5.47;;;;;;;;;;5033594;28;20049;-84
2023/03/10 08:42:57;;;;;;;11.00;7.22;;;;;;;;;;5030936;28;20037;-82
2023/03/10 08:45:31;;;;;;;8.57;5.82;;;;;;;;;;5007328;28;20053;-84
2023/03/10 08:48:02;;;;;;;7.32;5.70;;;;;;;;;;5034295;28;20053;-83
2023/03/10 08:50:29;;;;;;;9.90;5.25;;;;;;;;;;5026399;28;20067;-84
2023/03/10 08:53:02;;;;;;;8.70;7.82;;;;;;;;;;5037021;28;20056;-83
2023/03/10 08:55:55;;;;;;;6.13;5.07;;;;;;;;;;5025420;28;20054;-82
2023/03/10 08:58:48;;;;;;;6.50;4.88;;;;;;;;;;5028317;28;20049;-83
2023/03/10 09:04:54;;;;;;;8.32;4.82;;;;;;;;;;5029409;28;20045;-82
2023/03/10 09:07:25;;;;;;;7.03;4.97;;;;;;;;;;5023884;28;20389;-83
2023/03/10 09:09:53;;;;;;;8.15;4.55;;;;;;;;;;5006163;28;20084;-83
2023/03/10 09:12:27;;;;;;;9.43;5.65;;;;;;;;;;5000374;28;20068;-82
2023/03/10 09:15:02;;;;;;;6.65;5.47;;;;;;;;;;5019908;28;20052;-81
2023/03/10 09:17:29;;;;;;;4.80;4.30;;;;;;;;;;5021537;28;20415;-82
2023/03/10 09:19:57;;;;;;;4.85;4.15;;;;;;;;;;5001745;28;20057;-82
2023/03/10 09:22:24;;;;;;;4.47;4.07;;;;;;;;;;5034630;23;20096;-82
2023/03/10 09:24:55;;;;;;;6.53;4.28;;;;;;;;;;5005929;28;20042;-82
2023/03/10 09:27:26;;;;;;;4.85;3.58;;;;;;;;;;5031234;28;20042;-82
2023/03/10 09:29:53;;;;;;;4.13;3.72;;;;;;;;;;5003078;28;20427;-83
2023/03/10 09:32:21;;;;;;;6.72;3.70;;;;;;;;;;5011119;28;20042;-81
2023/03/10 09:34:49;;;;;;;3.22;2.95;;;;;;;;;;4994283;28;20426;-83
2023/03/10 09:37:16;;;;;;;4.35;3.22;;;;;;;;;;4992378;28;20050;-83
2023/03/10 09:39:43;;;;;;;7.72;6.22;;;;;;;;;;4966414;28;20073;-82
2023/03/10 09:42:17;;;;;;;5.25;3.25;;;;;;;;;;4984736;28;20565;-82
2023/03/10 09:45:05;;;;;;;4.53;2.90;;;;;;;;;;4990660;28;20332;-82
2023/03/10 09:47:45;;;;;;;4.50;3.35;;;;;;;;;;4985365;28;20058;-82
2023/03/10 09:50:25;;;;;;;3.08;2.78;;;;;;;;;;5005678;28;20138;-81
2023/03/10 09:53:18;;;;;;;3.42;2.75;;;;;;;;;;4994905;28;20393;-82
2023/03/10 09:55:46;;;;;;;3.22;2.60;;;;;;;;;;4957737;28;20042;-82
2023/03/10 09:58:27;;;;;;;5.35;3.20;;;;;;;;;;4974801;28;20047;-82
2023/03/10 10:00:54;;;;;;;3.35;3.05;;;;;;;;;;4985303;28;20051;-80
2023/03/10 10:03:27;;;;;;;4.72;3.28;;;;;;;;;;4971239;28;20469;-81
2023/03/10 10:05:56;;;;;;;4.32;3.08;;;;;;;;;;4983171;28;20046;-81
2023/03/10 10:08:25;;;;;;;4.90;3.53;;;;;;;;;;4990956;28;20168;-81
2023/03/10 10:10:55;;;;;;;;;;;;;;;;;;4992577;28;20044;-82
2023/03/10 10:13:24;;;;;;;3.28;2.97;;;;;;;;;;4979261;28;19930;-81
2023/03/10 10:15:57;;;;;;;8.02;3.38;;;;;;;;;;4987236;28;20122;-82
2023/03/10 10:18:50;;;;;;;6.30;3.10;;;;;;;;;;4994100;28;20074;-82
2023/03/10 10:21:17;;;;;;;2.85;2.53;;;;;;;;;;4992978;28;20534;-82
2023/03/10 10:23:48;;;;;;;7.45;3.42;;;;;;;;;;4976107;28;20070;-81
2023/03/10 10:26:19;;;;;;;3.83;3.00;;;;;;;;;;4974331;28;20051;-81
2023/03/10 10:28:47;;;;;;;;;;;;;;;;;;4973875;28;20047;-82
2023/03/10 10:31:21;;;;;;;3.28;2.97;;;;;;;;;;4958328;28;19926;-82
2023/03/10 10:33:53;;;;;;;5.45;2.85;;;;;;;;;;4978346;28;20068;-82
2023/03/10 10:36:22;;;;;;;5.25;2.53;;;;;;;;;;4962163;28;20055;-82
2023/03/10 10:38:50;;;;;;;3.05;2.40;;;;;;;;;;4978538;28;20115;-80
2023/03/10 10:41:20;;;;;;;2.20;2.00;;;;;;;;;;4962098;28;20110;-81
2023/03/10 10:43:49;;;;;;;6.80;2.60;;;;;;;;;;4977669;28;20054;-82
2023/03/10 10:46:24;;;;;;;4.55;2.70;;;;;;;;;;5033180;23;20057;-82
2023/03/10 10:49:03;;;;;;;3.13;2.25;;;;;;;;;;4999564;28;20046;-82
2023/03/10 10:51:34;;;;;;;5.32;2.25;;;;;;;;;;5011023;28;20092;-82
2023/03/10 10:54:03;;;;;;;7.90;2.63;;;;;;;;;;5016852;28;20058;-81
2023/03/10 10:56:31;;;;;;;6.22;3.65;;;;;;;;;;5005730;28;20289;-80
2023/03/10 10:59:17;;;;;;;35.35;31.63;;;;;;;;;;4989077;28;20150;-82
2023/03/10 11:01:51;;;;;;;4.18;2.30;;;;;;;;;;5035631;23;20056;-76
2023/03/10 11:04:22;;;;;;;2.15;1.98;;;;;;;;;;4981175;28;20129;-78
2023/03/10 11:06:50;;;;;;;3.17;2.40;;;;;;;;;;4989210;28;20046;-80
2023/03/10 11:09:19;;;;;;;2.65;2.00;;;;;;;;;;4984786;28;20042;-76
2023/03/10 11:12:05;;;;;;;2.35;1.98;;;;;;;;;;4988754;28;20121;-78
2023/03/10 11:14:33;;;;;;;1.90;1.80;;;;;;;;;;4988561;28;20572;-80
2023/03/10 11:17:13;;;;;;;5.32;4.82;;;;;;;;;;4986085;28;20423;-82
2023/03/10 11:19:49;;;;;;;2.28;2.00;;;;;;;;;;4986586;28;20097;-79
2023/03/10 11:22:39;;;;;;;2.35;2.13;;;;;;;;;;4984967;28;20129;-78
2023/03/10 11:25:15;;;;;;;4.85;2.38;;;;;;;;;;4951965;28;20141;-79
2023/03/10 11:27:55;;;;;;;4.30;2.20;;;;;;;;;;4984061;28;20084;-78
2023/03/10 11:30:28;;;;;;;14.88;2.60;;;;;;;;;;4986811;28;20046;-78
2023/03/10 11:33:04;;;;;;;6.88;4.45;;;;;;;;;;4986336;28;20093;-78
2023/03/10 11:35:36;;;;;;;5.28;2.40;;;;;;;;;;4987144;28;20512;-78
2023/03/10 11:38:05;;;;;;;3.50;2.10;;;;;;;;;;4987194;28;20043;-78
2023/03/10 11:40:32;;;;;;;8.65;2.50;;;;;;;;;;4982512;28;20078;-78
2023/03/10 11:43:01;;;;;;;6.13;2.25;;;;;;;;;;4985001;28;20282;-77
2023/03/10 11:45:52;;;;;;;2.15;1.67;;;;;;;;;;4984992;28;20134;-80
2023/03/10 11:48:19;;;;;;;3.15;2.33;;;;;;;;;;4980095;28;20428;-77
2023/03/10 11:50:59;;;;;;;4.40;2.35;;;;;;;;;;4981730;28;20056;-79
2023/03/10 11:53:33;;;;;;;4.45;2.50;;;;;;;;;;4984433;28;20042;-80
2023/03/10 11:56:01;;;;;;;6.43;2.42;;;;;;;;;;4982986;28;20456;-79
2023/03/10 11:58:28;;;;;;;5.70;1.85;;;;;;;;;;4986061;28;20077;-82
2023/03/10 12:00:56;;;;;;;3.50;1.98;;;;;;;;;;4987974;28;20077;-83
2023/03/10 12:03:29;;;;;;;1.75;1.60;;;;;;;;;;4983721;28;20370;-80
2023/03/10 12:06:00;;;;;;;4.15;1.85;;;;;;;;;;4985456;28;20047;-78
2023/03/10 12:08:30;;;;;;;2.22;1.50;;;;;;;;;;4985325;28;20050;-81
2023/03/10 12:10:59;;;;;;;2.55;1.85;;;;;;;;;;4987555;28;20570;-83
2023/03/10 12:13:29;;;;;;;2.80;1.80;;;;;;;;;;4991134;28;20544;-82
2023/03/10 12:15:58;;;;;;;2.00;1.80;;;;;;;;;;4988957;28;20089;-80
2023/03/10 12:18:26;;;;;;;49.95;20.20;;;;;;;;;;4989481;28;20070;-82
2023/03/10 12:21:14;;;;;;;7.50;1.77;;;;;;;;;;4989951;28;20042;-81
2023/03/10 12:23:46;;;;;;;3.30;1.83;;;;;;;;;;4988439;28;20043;-80
2023/03/10 12:26:14;;;;;;;4.15;1.70;;;;;;;;;;4987475;28;20062;-80
2023/03/10 12:28:41;;;;;;;2.15;1.50;;;;;;;;;;4987748;28;20068;-79
2023/03/10 12:31:10;;;;;;;5.80;5.22;;;;;;;;;;4982564;28;20148;-83
2023/03/10 12:33:40;;;;;;;2.70;1.85;;;;;;;;;;4963875;28;20050;-80
2023/03/10 12:36:14;;;;;;;8.38;1.95;;;;;;;;;;4980450;28;20822;-80
2023/03/10 12:38:41;;;;;;;4.85;1.80;;;;;;;;;;4980948;28;20050;-83
2023/03/10 12:41:09;;;;;;;2.60;1.77;;;;;;;;;;4982052;28;20054;-81
2023/03/10 12:43:46;;;;;;;2.65;1.60;;;;;;;;;;4978015;28;20050;-82
2023/03/10 12:46:22;;;;;;;4.03;1.73;;;;;;;;;;4980660;28;20129;-81
2023/03/10 12:48:59;;;;;;;2.25;1.80;;;;;;;;;;4982393;28;20132;-80
2023/03/10 12:51:28;;;;;;;0.77;0.77;;;;;;;;;;4981873;28;20065;-80
2023/03/10 12:54:04;;;;;;;1.02;0.80;;;;;;;;;;4975978;28;20065;-80
2023/03/10 12:56:35;;;;;;;4.38;4.07;;;;;;;;;;4981720;28;20050;-82
2023/03/10 12:59:29;;;;;;;389.52;291.75;;;;;;;;;;4981696;28;20065;-82
2023/03/10 13:01:57;;;;;;;1.08;1.00;;;;;;;;;;4977024;28;20058;-81
2023/03/10 13:04:26;;;;;;;4.80;4.45;;;;;;;;;;4979280;28;20053;-82
2023/03/10 13:07:02;;;;;;;618.85;528.75;;;;;;;;;;4981840;28;20042;-80
2023/03/10 13:09:37;;;;;;;0.65;0.65;;;;;;;;;;4990765;28;20050;-81
2023/03/10 13:12:17;;;;;;;259.15;223.98;;;;;;;;;;4992714;28;20461;-80
2023/03/10 13:14:44;;;;;;;0.80;0.55;;;;;;;;;;4982710;28;20038;-80
2023/03/10 13:17:22;;;;;;;0.35;0.35;;;;;;;;;;4980498;28;20046;-80
2023/03/10 13:19:57;;;;;;;0.60;0.55;;;;;;;;;;4982161;28;20324;-80
2023/03/10 13:22:25;;;;;;;0.80;0.63;;;;;;;;;;4983620;28;20104;-80
2023/03/10 13:25:01;;;;;;;0.70;0.57;;;;;;;;;;4982140;28;20060;-81
2023/03/10 13:27:30;;;;;;;1.83;0.60;;;;;;;;;;4988139;28;20097;-80
2023/03/10 13:29:58;;;;;;;2.70;1.13;;;;;;;;;;4988988;28;20046;-80
2023/03/10 13:32:26;;;;;;;0.85;0.85;;;;;;;;;;4987050;28;20068;-80
2023/03/10 13:34:54;;;;;;;1.63;0.60;;;;;;;;;;4981481;28;20440;-85
2023/03/10 13:37:23;;;;;;;0.77;0.77;;;;;;;;;;4979059;28;20074;-79
2023/03/10 13:39:51;;;;;;;1.27;0.40;;;;;;;;;;4976709;28;20255;-81
2023/03/10 13:42:26;;;;;;;1.65;0.50;;;;;;;;;;4980491;28;20054;-81
2023/03/10 13:45:20;;;;;;;1.27;0.63;;;;;;;;;;4976419;28;20461;-81
2023/03/10 13:47:47;;;;;;;0.93;0.93;;;;;;;;;;4977088;28;20801;-80
2023/03/10 13:50:15;;;;;;;0.60;0.60;;;;;;;;;;4978158;28;20133;-80
2023/03/10 13:52:53;;;;;;;2.92;2.70;;;;;;;;;;4979380;28;20046;-80
2023/03/10 13:55:21;;;;;;;2.17;2.05;;;;;;;;;;4979467;28;20493;-79
2023/03/10 13:57:49;;;;;;;2.45;2.25;;;;;;;;;;4977982;28;20570;-81
2023/03/10 14:00:19;;;;;;;1.20;1.00;;;;;;;;;;4981239;28;20058;-80
2023/03/10 14:02:51;;;;;;;0.50;0.50;;;;;;;;;;4982194;28;20058;-79
2023/03/10 14:05:37;;;;;;;0.43;0.43;;;;;;;;;;4979367;28;20050;-80
2023/03/10 14:08:05;;;;;;;0.52;0.40;;;;;;;;;;4977583;28;20347;-78
2023/03/10 14:10:32;;;;;;;2.97;2.83;;;;;;;;;;4980590;28;20122;-80
2023/03/10 14:12:59;;;;;;;0.65;0.60;;;;;;;;;;4979978;28;20054;-79
2023/03/10 14:15:37;;;;;;;26.65;24.20;;;;;;;;;;4980568;28;20119;-79
2023/03/10 14:18:08;;;;;;;0.93;0.30;;;;;;;;;;4981003;28;20393;-79
2023/03/10 14:20:35;;;;;;;0.55;0.40;;;;;;;;;;4979885;28;20129;-80
2023/03/10 14:23:18;;;;;;;0.65;0.50;;;;;;;;;;4979463;28;20868;-81
2023/03/10 14:25:45;;;;;;;0.88;0.80;;;;;;;;;;4982727;28;20116;-79
2023/03/10 14:28:32;;;;;;;2.97;2.72;;;;;;;;;;4981145;28;20598;-81
2023/03/10 14:31:05;;;;;;;39.13;35.53;;;;;;;;;;4983008;28;20414;-80
2023/03/10 14:33:33;;;;;;;101.65;92.95;;;;;;;;;;4981905;28;20527;-80
2023/03/10 14:36:00;;;;;;;0.30;0.30;;;;;;;;;;4979490;28;20419;-81
2023/03/10 14:38:28;;;;;;;2.10;0.80;;;;;;;;;;4979725;28;20547;-80
2023/03/10 14:40:55;;;;;;;3.65;0.82;;;;;;;;;;4979224;28;20133;-79
2023/03/10 14:43:25;;;;;;;15.35;13.65;;;;;;;;;;4976920;28;20061;-78
2023/03/10 14:45:53;;;;;;;1.10;0.60;;;;;;;;;;4977820;28;20137;-81
2023/03/10 14:48:22;;;;;;;66.85;59.58;;;;;;;;;;4979113;28;20054;-81
2023/03/10 14:50:50;;;;;;;2.33;2.17;;;;;;;;;;4966202;28;20043;-80
2023/03/10 14:53:23;;;;;;;1.60;0.75;;;;;;;;;;4980804;28;20066;-81
2023/03/10 14:55:52;;;;;;;15.95;14.68;;;;;;;;;;4981107;28;20125;-80
2023/03/10 14:58:44;;;;;;;10.48;9.43;;;;;;;;;;4983903;28;20043;-80
2023/03/10 15:01:12;;;;;;;2.42;0.73;;;;;;;;;;4974749;28;20054;-80
2023/03/10 15:03:40;;;;;;;121.65;109.78;;;;;;;;;;4982684;28;20406;-79
2023/03/10 15:06:09;;;;;;;1.33;0.80;;;;;;;;;;4978730;28;20058;-80
2023/03/10 15:08:37;;;;;;;3.13;1.15;;;;;;;;;;4980525;28;20400;-81
2023/03/10 15:11:04;;;;;;;13.98;6.68;;;;;;;;;;4980466;28;20584;-80
2023/03/10 15:13:32;;;;;;;13.13;3.78;;;;;;;;;;4980778;28;20054;-80